<?xml version="1.0" encoding="UTF-8" standalone="no" ?>
<gpx xmlns="http://www.topografix.com/GPX/1/1" xmlns:xsi="http://www.w3.org/2001/XMLSchema-instance" xsi:schemaLocation="http://www.topografix.com/GPX/1/1 http://www.topografix.com/GPX/1/1/gpx.xsd" version="1.1" creator="VisuGPX - https://www.visugpx.com">
  <metadata>
    <name>sdfg</name>
  </metadata>
  <trk>
    <name><![CDATA[Morez - Gros Crétet - Fort du Risoux - Lac des Rousses - Les Rousses sur TraceDeTrail.fr]]></name>
    <extensions>
      <line xmlns="http://www.topografix.com/GPX/gpx_style/0/2">
        <color>0000FF</color>
        <width>4</width>
      </line>
    </extensions>
    <trkseg>
      <trkpt lat="46.46495" lon="6.03691">
        <ele>1100</ele>
        <time>2000-01-01T02:49:43.000Z</time>
      </trkpt>
      <trkpt lat="46.46481" lon="6.03704">
        <ele>1099</ele>
        <time>2000-01-01T02:49:33.000Z</time>
      </trkpt>
      <trkpt lat="46.46505" lon="6.03762">
        <ele>1098</ele>
        <time>2000-01-01T02:49:23.000Z</time>
      </trkpt>
      <trkpt lat="46.4652" lon="6.03797">
        <ele>1094</ele>
        <time>2000-01-01T02:49:13.000Z</time>
      </trkpt>
      <trkpt lat="46.46534" lon="6.03824">
        <ele>1094</ele>
        <time>2000-01-01T02:49:03.000Z</time>
      </trkpt>
      <trkpt lat="46.46541" lon="6.03854">
        <ele>1095</ele>
        <time>2000-01-01T02:48:53.000Z</time>
      </trkpt>
      <trkpt lat="46.46542" lon="6.03921">
        <ele>1094</ele>
        <time>2000-01-01T02:48:43.000Z</time>
      </trkpt>
      <trkpt lat="46.46544" lon="6.03957">
        <ele>1094</ele>
        <time>2000-01-01T02:48:33.000Z</time>
      </trkpt>
      <trkpt lat="46.46549" lon="6.03978">
        <ele>1097.4</ele>
        <time>2000-01-01T02:48:23.000Z</time>
      </trkpt>
      <trkpt lat="46.46554" lon="6.03986">
        <ele>1099</ele>
        <time>2000-01-01T02:48:13.000Z</time>
      </trkpt>
      <trkpt lat="46.46582" lon="6.04029">
        <ele>1101</ele>
        <time>2000-01-01T02:48:03.000Z</time>
      </trkpt>
      <trkpt lat="46.46623" lon="6.04078">
        <ele>1102</ele>
        <time>2000-01-01T02:47:53.000Z</time>
      </trkpt>
      <trkpt lat="46.46645" lon="6.04106">
        <ele>1104</ele>
        <time>2000-01-01T02:47:43.000Z</time>
      </trkpt>
      <trkpt lat="46.4666" lon="6.04133">
        <ele>1104</ele>
        <time>2000-01-01T02:47:33.000Z</time>
      </trkpt>
      <trkpt lat="46.46695" lon="6.04214">
        <ele>1092.7</ele>
        <time>2000-01-01T02:47:23.000Z</time>
      </trkpt>
      <trkpt lat="46.46701" lon="6.04233">
        <ele>1103</ele>
        <time>2000-01-01T02:47:13.000Z</time>
      </trkpt>
      <trkpt lat="46.46711" lon="6.04305">
        <ele>1088.1</ele>
        <time>2000-01-01T02:47:03.000Z</time>
      </trkpt>
      <trkpt lat="46.46705" lon="6.04323">
        <ele>1090</ele>
        <time>2000-01-01T02:46:53.000Z</time>
      </trkpt>
      <trkpt lat="46.46695" lon="6.04358">
        <ele>1090</ele>
        <time>2000-01-01T02:46:43.000Z</time>
      </trkpt>
      <trkpt lat="46.46689" lon="6.04394">
        <ele>1086.9</ele>
        <time>2000-01-01T02:46:33.000Z</time>
      </trkpt>
      <trkpt lat="46.46694" lon="6.04408">
        <ele>1091</ele>
        <time>2000-01-01T02:46:23.000Z</time>
      </trkpt>
      <trkpt lat="46.4675" lon="6.04417">
        <ele>1090</ele>
        <time>2000-01-01T02:46:13.000Z</time>
      </trkpt>
      <trkpt lat="46.4678" lon="6.04421">
        <ele>1082</ele>
        <time>2000-01-01T02:46:03.000Z</time>
      </trkpt>
      <trkpt lat="46.46795" lon="6.04441">
        <ele>1076</ele>
        <time>2000-01-01T02:45:53.000Z</time>
      </trkpt>
      <trkpt lat="46.46806" lon="6.04447">
        <ele>1067</ele>
        <time>2000-01-01T02:45:43.000Z</time>
      </trkpt>
      <trkpt lat="46.46806" lon="6.04471">
        <ele>1070</ele>
        <time>2000-01-01T02:45:33.000Z</time>
      </trkpt>
      <trkpt lat="46.4679" lon="6.0451">
        <ele>1066</ele>
        <time>2000-01-01T02:45:23.000Z</time>
      </trkpt>
      <trkpt lat="46.46776" lon="6.04542">
        <ele>1060</ele>
        <time>2000-01-01T02:45:13.000Z</time>
      </trkpt>
      <trkpt lat="46.4676" lon="6.04554">
        <ele>1060</ele>
        <time>2000-01-01T02:45:03.000Z</time>
      </trkpt>
      <trkpt lat="46.4675" lon="6.04588">
        <ele>1052</ele>
        <time>2000-01-01T02:44:53.000Z</time>
      </trkpt>
      <trkpt lat="46.4674" lon="6.0462">
        <ele>1049</ele>
        <time>2000-01-01T02:44:43.000Z</time>
      </trkpt>
      <trkpt lat="46.46716" lon="6.04651">
        <ele>1051.6</ele>
        <time>2000-01-01T02:44:33.000Z</time>
      </trkpt>
      <trkpt lat="46.46711" lon="6.04675">
        <ele>1047</ele>
        <time>2000-01-01T02:44:23.000Z</time>
      </trkpt>
      <trkpt lat="46.46689" lon="6.04727">
        <ele>1048</ele>
        <time>2000-01-01T02:44:13.000Z</time>
      </trkpt>
      <trkpt lat="46.46674" lon="6.04755">
        <ele>1049</ele>
        <time>2000-01-01T02:44:03.000Z</time>
      </trkpt>
      <trkpt lat="46.46656" lon="6.04772">
        <ele>1051</ele>
        <time>2000-01-01T02:43:53.000Z</time>
      </trkpt>
      <trkpt lat="46.46622" lon="6.04812">
        <ele>1055</ele>
        <time>2000-01-01T02:43:43.000Z</time>
      </trkpt>
      <trkpt lat="46.466" lon="6.04857">
        <ele>1055</ele>
        <time>2000-01-01T02:43:33.000Z</time>
      </trkpt>
      <trkpt lat="46.46574" lon="6.04883">
        <ele>1052</ele>
        <time>2000-01-01T02:43:23.000Z</time>
      </trkpt>
      <trkpt lat="46.46554" lon="6.04904">
        <ele>1049</ele>
        <time>2000-01-01T02:43:13.000Z</time>
      </trkpt>
      <trkpt lat="46.4653" lon="6.04922">
        <ele>1047</ele>
        <time>2000-01-01T02:43:03.000Z</time>
      </trkpt>
      <trkpt lat="46.46509" lon="6.04939">
        <ele>1040</ele>
        <time>2000-01-01T02:42:53.000Z</time>
      </trkpt>
      <trkpt lat="46.46487" lon="6.04968">
        <ele>1025</ele>
        <time>2000-01-01T02:42:43.000Z</time>
      </trkpt>
      <trkpt lat="46.46474" lon="6.04992">
        <ele>1027.7</ele>
        <time>2000-01-01T02:42:33.000Z</time>
      </trkpt>
      <trkpt lat="46.46468" lon="6.05002">
        <ele>1021</ele>
        <time>2000-01-01T02:42:23.000Z</time>
      </trkpt>
      <trkpt lat="46.46458" lon="6.05007">
        <ele>1029.3</ele>
        <time>2000-01-01T02:42:13.000Z</time>
      </trkpt>
      <trkpt lat="46.46455" lon="6.05014">
        <ele>1030.1</ele>
        <time>2000-01-01T02:42:03.000Z</time>
      </trkpt>
      <trkpt lat="46.46456" lon="6.05023">
        <ele>1030.2</ele>
        <time>2000-01-01T02:41:53.000Z</time>
      </trkpt>
      <trkpt lat="46.46459" lon="6.05026">
        <ele>1020</ele>
        <time>2000-01-01T02:41:43.000Z</time>
      </trkpt>
      <trkpt lat="46.4646" lon="6.05037">
        <ele>1029.7</ele>
        <time>2000-01-01T02:41:33.000Z</time>
      </trkpt>
      <trkpt lat="46.46472" lon="6.05047">
        <ele>1020</ele>
        <time>2000-01-01T02:41:23.000Z</time>
      </trkpt>
      <trkpt lat="46.4649" lon="6.05054">
        <ele>1023.3</ele>
        <time>2000-01-01T02:41:13.000Z</time>
      </trkpt>
      <trkpt lat="46.465" lon="6.0507">
        <ele>1019</ele>
        <time>2000-01-01T02:41:03.000Z</time>
      </trkpt>
      <trkpt lat="46.46511" lon="6.05086">
        <ele>1020</ele>
        <time>2000-01-01T02:40:53.000Z</time>
      </trkpt>
      <trkpt lat="46.46513" lon="6.051">
        <ele>1019</ele>
        <time>2000-01-01T02:40:43.000Z</time>
      </trkpt>
      <trkpt lat="46.4652" lon="6.05114">
        <ele>1020.2</ele>
        <time>2000-01-01T02:40:33.000Z</time>
      </trkpt>
      <trkpt lat="46.46522" lon="6.05125">
        <ele>1018</ele>
        <time>2000-01-01T02:40:23.000Z</time>
      </trkpt>
      <trkpt lat="46.46515" lon="6.0517">
        <ele>1022.5</ele>
        <time>2000-01-01T02:40:13.000Z</time>
      </trkpt>
      <trkpt lat="46.46522" lon="6.05187">
        <ele>1011</ele>
        <time>2000-01-01T02:40:03.000Z</time>
      </trkpt>
      <trkpt lat="46.4653" lon="6.05189">
        <ele>1024.7</ele>
        <time>2000-01-01T02:39:53.000Z</time>
      </trkpt>
      <trkpt lat="46.46546" lon="6.0519">
        <ele>1011</ele>
        <time>2000-01-01T02:39:43.000Z</time>
      </trkpt>
      <trkpt lat="46.46576" lon="6.0517">
        <ele>1023</ele>
        <time>2000-01-01T02:39:33.000Z</time>
      </trkpt>
      <trkpt lat="46.466" lon="6.05154">
        <ele>1030</ele>
        <time>2000-01-01T02:39:23.000Z</time>
      </trkpt>
      <trkpt lat="46.46637" lon="6.05138">
        <ele>1037</ele>
        <time>2000-01-01T02:39:13.000Z</time>
      </trkpt>
      <trkpt lat="46.46664" lon="6.05136">
        <ele>1042</ele>
        <time>2000-01-01T02:39:03.000Z</time>
      </trkpt>
      <trkpt lat="46.46689" lon="6.05127">
        <ele>1044</ele>
        <time>2000-01-01T02:38:53.000Z</time>
      </trkpt>
      <trkpt lat="46.46712" lon="6.05118">
        <ele>1046</ele>
        <time>2000-01-01T02:38:43.000Z</time>
      </trkpt>
      <trkpt lat="46.46738" lon="6.05119">
        <ele>1046</ele>
        <time>2000-01-01T02:38:33.000Z</time>
      </trkpt>
      <trkpt lat="46.46751" lon="6.05154">
        <ele>1048</ele>
        <time>2000-01-01T02:38:23.000Z</time>
      </trkpt>
      <trkpt lat="46.46737" lon="6.05176">
        <ele>1051</ele>
        <time>2000-01-01T02:38:13.000Z</time>
      </trkpt>
      <trkpt lat="46.46765" lon="6.052">
        <ele>1053</ele>
        <time>2000-01-01T02:38:03.000Z</time>
      </trkpt>
      <trkpt lat="46.46797" lon="6.05216">
        <ele>1061</ele>
        <time>2000-01-01T02:37:53.000Z</time>
      </trkpt>
      <trkpt lat="46.46808" lon="6.05248">
        <ele>1081</ele>
        <time>2000-01-01T02:37:43.000Z</time>
      </trkpt>
      <trkpt lat="46.46819" lon="6.05278">
        <ele>1088</ele>
        <time>2000-01-01T02:37:33.000Z</time>
      </trkpt>
      <trkpt lat="46.46839" lon="6.05332">
        <ele>1101</ele>
        <time>2000-01-01T02:37:23.000Z</time>
      </trkpt>
      <trkpt lat="46.46853" lon="6.05368">
        <ele>1106</ele>
        <time>2000-01-01T02:37:13.000Z</time>
      </trkpt>
      <trkpt lat="46.46887" lon="6.05394">
        <ele>1111</ele>
        <time>2000-01-01T02:37:03.000Z</time>
      </trkpt>
      <trkpt lat="46.46916" lon="6.05415">
        <ele>1116</ele>
        <time>2000-01-01T02:36:53.000Z</time>
      </trkpt>
      <trkpt lat="46.46944" lon="6.05437">
        <ele>1128</ele>
        <time>2000-01-01T02:36:43.000Z</time>
      </trkpt>
      <trkpt lat="46.46966" lon="6.05458">
        <ele>1129</ele>
        <time>2000-01-01T02:36:33.000Z</time>
      </trkpt>
      <trkpt lat="46.46986" lon="6.05478">
        <ele>1130</ele>
        <time>2000-01-01T02:36:23.000Z</time>
      </trkpt>
      <trkpt lat="46.47012" lon="6.05515">
        <ele>1130</ele>
        <time>2000-01-01T02:36:13.000Z</time>
      </trkpt>
      <trkpt lat="46.47047" lon="6.05542">
        <ele>1124</ele>
        <time>2000-01-01T02:36:03.000Z</time>
      </trkpt>
      <trkpt lat="46.47097" lon="6.05546">
        <ele>1121.6</ele>
        <time>2000-01-01T02:35:53.000Z</time>
      </trkpt>
      <trkpt lat="46.47105" lon="6.05547">
        <ele>1118</ele>
        <time>2000-01-01T02:35:43.000Z</time>
      </trkpt>
      <trkpt lat="46.47134" lon="6.05539">
        <ele>1112</ele>
        <time>2000-01-01T02:35:33.000Z</time>
      </trkpt>
      <trkpt lat="46.47159" lon="6.05533">
        <ele>1112</ele>
        <time>2000-01-01T02:35:23.000Z</time>
      </trkpt>
      <trkpt lat="46.47196" lon="6.05504">
        <ele>1111</ele>
        <time>2000-01-01T02:35:13.000Z</time>
      </trkpt>
      <trkpt lat="46.4722" lon="6.05484">
        <ele>1110</ele>
        <time>2000-01-01T02:35:03.000Z</time>
      </trkpt>
      <trkpt lat="46.47251" lon="6.05479">
        <ele>1112</ele>
        <time>2000-01-01T02:34:53.000Z</time>
      </trkpt>
      <trkpt lat="46.47283" lon="6.05472">
        <ele>1119</ele>
        <time>2000-01-01T02:34:43.000Z</time>
      </trkpt>
      <trkpt lat="46.47322" lon="6.05463">
        <ele>1126</ele>
        <time>2000-01-01T02:34:33.000Z</time>
      </trkpt>
      <trkpt lat="46.47356" lon="6.05488">
        <ele>1138.2</ele>
        <time>2000-01-01T02:34:23.000Z</time>
      </trkpt>
      <trkpt lat="46.47365" lon="6.05505">
        <ele>1140</ele>
        <time>2000-01-01T02:34:13.000Z</time>
      </trkpt>
      <trkpt lat="46.47387" lon="6.05539">
        <ele>1155</ele>
        <time>2000-01-01T02:34:03.000Z</time>
      </trkpt>
      <trkpt lat="46.47414" lon="6.05584">
        <ele>1155</ele>
        <time>2000-01-01T02:33:53.000Z</time>
      </trkpt>
      <trkpt lat="46.4744" lon="6.05636">
        <ele>1152</ele>
        <time>2000-01-01T02:33:43.000Z</time>
      </trkpt>
      <trkpt lat="46.47455" lon="6.05664">
        <ele>1146</ele>
        <time>2000-01-01T02:33:33.000Z</time>
      </trkpt>
      <trkpt lat="46.4747" lon="6.05691">
        <ele>1141</ele>
        <time>2000-01-01T02:33:23.000Z</time>
      </trkpt>
      <trkpt lat="46.47491" lon="6.05716">
        <ele>1136</ele>
        <time>2000-01-01T02:33:13.000Z</time>
      </trkpt>
      <trkpt lat="46.47511" lon="6.05739">
        <ele>1136</ele>
        <time>2000-01-01T02:33:03.000Z</time>
      </trkpt>
      <trkpt lat="46.4753" lon="6.05761">
        <ele>1133</ele>
        <time>2000-01-01T02:32:53.000Z</time>
      </trkpt>
      <trkpt lat="46.47558" lon="6.05747">
        <ele>1130</ele>
        <time>2000-01-01T02:32:43.000Z</time>
      </trkpt>
      <trkpt lat="46.47597" lon="6.05736">
        <ele>1133</ele>
        <time>2000-01-01T02:32:33.000Z</time>
      </trkpt>
      <trkpt lat="46.4762" lon="6.05728">
        <ele>1133</ele>
        <time>2000-01-01T02:32:23.000Z</time>
      </trkpt>
      <trkpt lat="46.47643" lon="6.05719">
        <ele>1134</ele>
        <time>2000-01-01T02:32:13.000Z</time>
      </trkpt>
      <trkpt lat="46.47687" lon="6.05698">
        <ele>1134</ele>
        <time>2000-01-01T02:32:03.000Z</time>
      </trkpt>
      <trkpt lat="46.4771" lon="6.0571">
        <ele>1138</ele>
        <time>2000-01-01T02:31:53.000Z</time>
      </trkpt>
      <trkpt lat="46.47735" lon="6.05732">
        <ele>1140</ele>
        <time>2000-01-01T02:31:43.000Z</time>
      </trkpt>
      <trkpt lat="46.47771" lon="6.05737">
        <ele>1142</ele>
        <time>2000-01-01T02:31:33.000Z</time>
      </trkpt>
      <trkpt lat="46.47814" lon="6.05742">
        <ele>1138</ele>
        <time>2000-01-01T02:31:23.000Z</time>
      </trkpt>
      <trkpt lat="46.47833" lon="6.05755">
        <ele>1140</ele>
        <time>2000-01-01T02:31:13.000Z</time>
      </trkpt>
      <trkpt lat="46.47854" lon="6.05781">
        <ele>1139</ele>
        <time>2000-01-01T02:31:03.000Z</time>
      </trkpt>
      <trkpt lat="46.47872" lon="6.0581">
        <ele>1140</ele>
        <time>2000-01-01T02:30:53.000Z</time>
      </trkpt>
      <trkpt lat="46.4789" lon="6.0584">
        <ele>1134.5</ele>
        <time>2000-01-01T02:30:43.000Z</time>
      </trkpt>
      <trkpt lat="46.47906" lon="6.05839">
        <ele>1142</ele>
        <time>2000-01-01T02:30:33.000Z</time>
      </trkpt>
      <trkpt lat="46.47926" lon="6.05843">
        <ele>1140</ele>
        <time>2000-01-01T02:30:23.000Z</time>
      </trkpt>
      <trkpt lat="46.47946" lon="6.0584">
        <ele>1133</ele>
        <time>2000-01-01T02:30:13.000Z</time>
      </trkpt>
      <trkpt lat="46.47958" lon="6.05845">
        <ele>1135</ele>
        <time>2000-01-01T02:30:03.000Z</time>
      </trkpt>
      <trkpt lat="46.47973" lon="6.05849">
        <ele>1128</ele>
        <time>2000-01-01T02:29:53.000Z</time>
      </trkpt>
      <trkpt lat="46.47996" lon="6.05838">
        <ele>1125</ele>
        <time>2000-01-01T02:29:43.000Z</time>
      </trkpt>
      <trkpt lat="46.48021" lon="6.05852">
        <ele>1123</ele>
        <time>2000-01-01T02:29:33.000Z</time>
      </trkpt>
      <trkpt lat="46.48044" lon="6.05853">
        <ele>1123</ele>
        <time>2000-01-01T02:29:23.000Z</time>
      </trkpt>
      <trkpt lat="46.48086" lon="6.0586">
        <ele>1132.3</ele>
        <time>2000-01-01T02:29:13.000Z</time>
      </trkpt>
      <trkpt lat="46.48101" lon="6.05872">
        <ele>1132</ele>
        <time>2000-01-01T02:29:03.000Z</time>
      </trkpt>
      <trkpt lat="46.48119" lon="6.05883">
        <ele>1141</ele>
        <time>2000-01-01T02:28:53.000Z</time>
      </trkpt>
      <trkpt lat="46.48134" lon="6.05883">
        <ele>1132</ele>
        <time>2000-01-01T02:28:43.000Z</time>
      </trkpt>
      <trkpt lat="46.48148" lon="6.05895">
        <ele>1140</ele>
        <time>2000-01-01T02:28:33.000Z</time>
      </trkpt>
      <trkpt lat="46.48168" lon="6.05908">
        <ele>1139</ele>
        <time>2000-01-01T02:28:23.000Z</time>
      </trkpt>
      <trkpt lat="46.48183" lon="6.05936">
        <ele>1139</ele>
        <time>2000-01-01T02:28:13.000Z</time>
      </trkpt>
      <trkpt lat="46.48189" lon="6.05967">
        <ele>1127.2</ele>
        <time>2000-01-01T02:28:03.000Z</time>
      </trkpt>
      <trkpt lat="46.48199" lon="6.05984">
        <ele>1139</ele>
        <time>2000-01-01T02:27:53.000Z</time>
      </trkpt>
      <trkpt lat="46.48192" lon="6.06001">
        <ele>1125.7</ele>
        <time>2000-01-01T02:27:43.000Z</time>
      </trkpt>
      <trkpt lat="46.48204" lon="6.06018">
        <ele>1139</ele>
        <time>2000-01-01T02:27:33.000Z</time>
      </trkpt>
      <trkpt lat="46.48229" lon="6.06039">
        <ele>1139</ele>
        <time>2000-01-01T02:27:23.000Z</time>
      </trkpt>
      <trkpt lat="46.48243" lon="6.06074">
        <ele>1123.3</ele>
        <time>2000-01-01T02:27:13.000Z</time>
      </trkpt>
      <trkpt lat="46.48261" lon="6.0608">
        <ele>1123</ele>
        <time>2000-01-01T02:27:03.000Z</time>
      </trkpt>
      <trkpt lat="46.48291" lon="6.06082">
        <ele>1120</ele>
        <time>2000-01-01T02:26:53.000Z</time>
      </trkpt>
      <trkpt lat="46.48326" lon="6.06059">
        <ele>1109</ele>
        <time>2000-01-01T02:26:43.000Z</time>
      </trkpt>
      <trkpt lat="46.48348" lon="6.06038">
        <ele>1107</ele>
        <time>2000-01-01T02:26:33.000Z</time>
      </trkpt>
      <trkpt lat="46.48345" lon="6.06055">
        <ele>1114.3</ele>
        <time>2000-01-01T02:26:23.000Z</time>
      </trkpt>
      <trkpt lat="46.4834" lon="6.06077">
        <ele>1105</ele>
        <time>2000-01-01T02:26:13.000Z</time>
      </trkpt>
      <trkpt lat="46.48351" lon="6.06105">
        <ele>1105</ele>
        <time>2000-01-01T02:26:03.000Z</time>
      </trkpt>
      <trkpt lat="46.48393" lon="6.06165">
        <ele>1121.4</ele>
        <time>2000-01-01T02:25:53.000Z</time>
      </trkpt>
      <trkpt lat="46.48399" lon="6.06181">
        <ele>1116</ele>
        <time>2000-01-01T02:25:43.000Z</time>
      </trkpt>
      <trkpt lat="46.48403" lon="6.06201">
        <ele>1124.4</ele>
        <time>2000-01-01T02:25:33.000Z</time>
      </trkpt>
      <trkpt lat="46.48403" lon="6.0622">
        <ele>1123</ele>
        <time>2000-01-01T02:25:23.000Z</time>
      </trkpt>
      <trkpt lat="46.48406" lon="6.06244">
        <ele>1127.6</ele>
        <time>2000-01-01T02:25:13.000Z</time>
      </trkpt>
      <trkpt lat="46.48412" lon="6.06267">
        <ele>1125</ele>
        <time>2000-01-01T02:25:03.000Z</time>
      </trkpt>
      <trkpt lat="46.48424" lon="6.063">
        <ele>1126</ele>
        <time>2000-01-01T02:24:53.000Z</time>
      </trkpt>
      <trkpt lat="46.48442" lon="6.0635">
        <ele>1137</ele>
        <time>2000-01-01T02:24:43.000Z</time>
      </trkpt>
      <trkpt lat="46.4846" lon="6.06388">
        <ele>1137</ele>
        <time>2000-01-01T02:24:33.000Z</time>
      </trkpt>
      <trkpt lat="46.48476" lon="6.06435">
        <ele>1136</ele>
        <time>2000-01-01T02:24:23.000Z</time>
      </trkpt>
      <trkpt lat="46.48487" lon="6.0648">
        <ele>1124.7</ele>
        <time>2000-01-01T02:24:13.000Z</time>
      </trkpt>
      <trkpt lat="46.48493" lon="6.06497">
        <ele>1130</ele>
        <time>2000-01-01T02:24:03.000Z</time>
      </trkpt>
      <trkpt lat="46.48503" lon="6.06521">
        <ele>1128</ele>
        <time>2000-01-01T02:23:53.000Z</time>
      </trkpt>
      <trkpt lat="46.48514" lon="6.06548">
        <ele>1128</ele>
        <time>2000-01-01T02:23:43.000Z</time>
      </trkpt>
      <trkpt lat="46.48528" lon="6.06593">
        <ele>1127</ele>
        <time>2000-01-01T02:23:33.000Z</time>
      </trkpt>
      <trkpt lat="46.48547" lon="6.06645">
        <ele>1125</ele>
        <time>2000-01-01T02:23:23.000Z</time>
      </trkpt>
      <trkpt lat="46.48558" lon="6.0668">
        <ele>1124</ele>
        <time>2000-01-01T02:23:13.000Z</time>
      </trkpt>
      <trkpt lat="46.48566" lon="6.06707">
        <ele>1123</ele>
        <time>2000-01-01T02:23:03.000Z</time>
      </trkpt>
      <trkpt lat="46.48574" lon="6.06756">
        <ele>1121</ele>
        <time>2000-01-01T02:22:53.000Z</time>
      </trkpt>
      <trkpt lat="46.48578" lon="6.06774">
        <ele>1117.6</ele>
        <time>2000-01-01T02:22:43.000Z</time>
      </trkpt>
      <trkpt lat="46.4857" lon="6.0678">
        <ele>1119</ele>
        <time>2000-01-01T02:22:33.000Z</time>
      </trkpt>
      <trkpt lat="46.48552" lon="6.06784">
        <ele>1118</ele>
        <time>2000-01-01T02:22:23.000Z</time>
      </trkpt>
      <trkpt lat="46.48556" lon="6.06816">
        <ele>1117</ele>
        <time>2000-01-01T02:22:13.000Z</time>
      </trkpt>
      <trkpt lat="46.48562" lon="6.06848">
        <ele>1117</ele>
        <time>2000-01-01T02:22:03.000Z</time>
      </trkpt>
      <trkpt lat="46.48573" lon="6.06895">
        <ele>1121</ele>
        <time>2000-01-01T02:21:53.000Z</time>
      </trkpt>
      <trkpt lat="46.48582" lon="6.06942">
        <ele>1126</ele>
        <time>2000-01-01T02:21:43.000Z</time>
      </trkpt>
      <trkpt lat="46.48595" lon="6.07004">
        <ele>1116</ele>
        <time>2000-01-01T02:21:33.000Z</time>
      </trkpt>
      <trkpt lat="46.48609" lon="6.07057">
        <ele>1111.2</ele>
        <time>2000-01-01T02:21:23.000Z</time>
      </trkpt>
      <trkpt lat="46.48619" lon="6.07074">
        <ele>1112</ele>
        <time>2000-01-01T02:21:13.000Z</time>
      </trkpt>
      <trkpt lat="46.48634" lon="6.07078">
        <ele>1109.6</ele>
        <time>2000-01-01T02:21:03.000Z</time>
      </trkpt>
      <trkpt lat="46.48645" lon="6.07074">
        <ele>1108</ele>
        <time>2000-01-01T02:20:53.000Z</time>
      </trkpt>
      <trkpt lat="46.48658" lon="6.07055">
        <ele>1109.9</ele>
        <time>2000-01-01T02:20:43.000Z</time>
      </trkpt>
      <trkpt lat="46.48662" lon="6.07032">
        <ele>1110</ele>
        <time>2000-01-01T02:20:33.000Z</time>
      </trkpt>
      <trkpt lat="46.4866" lon="6.07">
        <ele>1111</ele>
        <time>2000-01-01T02:20:23.000Z</time>
      </trkpt>
      <trkpt lat="46.48648" lon="6.06963">
        <ele>1115</ele>
        <time>2000-01-01T02:20:13.000Z</time>
      </trkpt>
      <trkpt lat="46.4864" lon="6.06931">
        <ele>1118</ele>
        <time>2000-01-01T02:20:03.000Z</time>
      </trkpt>
      <trkpt lat="46.48646" lon="6.06912">
        <ele>1111.5</ele>
        <time>2000-01-01T02:19:53.000Z</time>
      </trkpt>
      <trkpt lat="46.48653" lon="6.06902">
        <ele>1123</ele>
        <time>2000-01-01T02:19:43.000Z</time>
      </trkpt>
      <trkpt lat="46.48667" lon="6.06897">
        <ele>1109.8</ele>
        <time>2000-01-01T02:19:33.000Z</time>
      </trkpt>
      <trkpt lat="46.48677" lon="6.06901">
        <ele>1109.5</ele>
        <time>2000-01-01T02:19:23.000Z</time>
      </trkpt>
      <trkpt lat="46.48682" lon="6.0691">
        <ele>1123</ele>
        <time>2000-01-01T02:19:13.000Z</time>
      </trkpt>
      <trkpt lat="46.48696" lon="6.06942">
        <ele>1123</ele>
        <time>2000-01-01T02:19:03.000Z</time>
      </trkpt>
      <trkpt lat="46.48712" lon="6.06965">
        <ele>1111</ele>
        <time>2000-01-01T02:18:53.000Z</time>
      </trkpt>
      <trkpt lat="46.48745" lon="6.06981">
        <ele>1111</ele>
        <time>2000-01-01T02:18:43.000Z</time>
      </trkpt>
      <trkpt lat="46.4875" lon="6.06993">
        <ele>1108</ele>
        <time>2000-01-01T02:18:33.000Z</time>
      </trkpt>
      <trkpt lat="46.48765" lon="6.07002">
        <ele>1111</ele>
        <time>2000-01-01T02:18:23.000Z</time>
      </trkpt>
      <trkpt lat="46.48776" lon="6.07027">
        <ele>1108</ele>
        <time>2000-01-01T02:18:13.000Z</time>
      </trkpt>
      <trkpt lat="46.48781" lon="6.07048">
        <ele>1111</ele>
        <time>2000-01-01T02:18:03.000Z</time>
      </trkpt>
      <trkpt lat="46.48806" lon="6.07048">
        <ele>1111</ele>
        <time>2000-01-01T02:17:53.000Z</time>
      </trkpt>
      <trkpt lat="46.4883" lon="6.07049">
        <ele>1112</ele>
        <time>2000-01-01T02:17:43.000Z</time>
      </trkpt>
      <trkpt lat="46.48862" lon="6.07044">
        <ele>1111</ele>
        <time>2000-01-01T02:17:33.000Z</time>
      </trkpt>
      <trkpt lat="46.48888" lon="6.07039">
        <ele>1112.8</ele>
        <time>2000-01-01T02:17:23.000Z</time>
      </trkpt>
      <trkpt lat="46.48904" lon="6.07028">
        <ele>1124</ele>
        <time>2000-01-01T02:17:13.000Z</time>
      </trkpt>
      <trkpt lat="46.48916" lon="6.0707">
        <ele>1118.3</ele>
        <time>2000-01-01T02:17:03.000Z</time>
      </trkpt>
      <trkpt lat="46.48929" lon="6.07087">
        <ele>1134</ele>
        <time>2000-01-01T02:16:53.000Z</time>
      </trkpt>
      <trkpt lat="46.48958" lon="6.07136">
        <ele>1121.8</ele>
        <time>2000-01-01T02:16:43.000Z</time>
      </trkpt>
      <trkpt lat="46.48961" lon="6.07154">
        <ele>1143</ele>
        <time>2000-01-01T02:16:33.000Z</time>
      </trkpt>
      <trkpt lat="46.4897" lon="6.07172">
        <ele>1125</ele>
        <time>2000-01-01T02:16:23.000Z</time>
      </trkpt>
      <trkpt lat="46.48978" lon="6.0718">
        <ele>1143</ele>
        <time>2000-01-01T02:16:13.000Z</time>
      </trkpt>
      <trkpt lat="46.48997" lon="6.07199">
        <ele>1140</ele>
        <time>2000-01-01T02:16:03.000Z</time>
      </trkpt>
      <trkpt lat="46.49017" lon="6.07223">
        <ele>1138</ele>
        <time>2000-01-01T02:15:53.000Z</time>
      </trkpt>
      <trkpt lat="46.49034" lon="6.07257">
        <ele>1134</ele>
        <time>2000-01-01T02:15:43.000Z</time>
      </trkpt>
      <trkpt lat="46.49051" lon="6.07296">
        <ele>1133</ele>
        <time>2000-01-01T02:15:33.000Z</time>
      </trkpt>
      <trkpt lat="46.4907" lon="6.07328">
        <ele>1132</ele>
        <time>2000-01-01T02:15:23.000Z</time>
      </trkpt>
      <trkpt lat="46.49078" lon="6.07351">
        <ele>1120.9</ele>
        <time>2000-01-01T02:15:13.000Z</time>
      </trkpt>
      <trkpt lat="46.49092" lon="6.07365">
        <ele>1131</ele>
        <time>2000-01-01T02:15:03.000Z</time>
      </trkpt>
      <trkpt lat="46.49105" lon="6.07384">
        <ele>1113.6</ele>
        <time>2000-01-01T02:14:53.000Z</time>
      </trkpt>
      <trkpt lat="46.49112" lon="6.07404">
        <ele>1115</ele>
        <time>2000-01-01T02:14:43.000Z</time>
      </trkpt>
      <trkpt lat="46.49121" lon="6.07435">
        <ele>1110</ele>
        <time>2000-01-01T02:14:33.000Z</time>
      </trkpt>
      <trkpt lat="46.49136" lon="6.07456">
        <ele>1106</ele>
        <time>2000-01-01T02:14:23.000Z</time>
      </trkpt>
      <trkpt lat="46.49147" lon="6.0748">
        <ele>1106</ele>
        <time>2000-01-01T02:14:13.000Z</time>
      </trkpt>
      <trkpt lat="46.49165" lon="6.07533">
        <ele>1100.1</ele>
        <time>2000-01-01T02:14:03.000Z</time>
      </trkpt>
      <trkpt lat="46.49182" lon="6.07522">
        <ele>1107</ele>
        <time>2000-01-01T02:13:53.000Z</time>
      </trkpt>
      <trkpt lat="46.49205" lon="6.07566">
        <ele>1104</ele>
        <time>2000-01-01T02:13:43.000Z</time>
      </trkpt>
      <trkpt lat="46.49247" lon="6.07555">
        <ele>1095</ele>
        <time>2000-01-01T02:13:33.000Z</time>
      </trkpt>
      <trkpt lat="46.49282" lon="6.07546">
        <ele>1094</ele>
        <time>2000-01-01T02:13:23.000Z</time>
      </trkpt>
      <trkpt lat="46.49317" lon="6.07536">
        <ele>1093</ele>
        <time>2000-01-01T02:13:13.000Z</time>
      </trkpt>
      <trkpt lat="46.49352" lon="6.07527">
        <ele>1092</ele>
        <time>2000-01-01T02:13:03.000Z</time>
      </trkpt>
      <trkpt lat="46.49388" lon="6.0755">
        <ele>1092</ele>
        <time>2000-01-01T02:12:53.000Z</time>
      </trkpt>
      <trkpt lat="46.49418" lon="6.07593">
        <ele>1081.1</ele>
        <time>2000-01-01T02:12:43.000Z</time>
      </trkpt>
      <trkpt lat="46.49427" lon="6.07605">
        <ele>1091</ele>
        <time>2000-01-01T02:12:33.000Z</time>
      </trkpt>
      <trkpt lat="46.49443" lon="6.07628">
        <ele>1082</ele>
        <time>2000-01-01T02:12:23.000Z</time>
      </trkpt>
      <trkpt lat="46.49467" lon="6.0768">
        <ele>1082</ele>
        <time>2000-01-01T02:12:13.000Z</time>
      </trkpt>
      <trkpt lat="46.49482" lon="6.07714">
        <ele>1083</ele>
        <time>2000-01-01T02:12:03.000Z</time>
      </trkpt>
      <trkpt lat="46.49505" lon="6.07761">
        <ele>1084</ele>
        <time>2000-01-01T02:11:53.000Z</time>
      </trkpt>
      <trkpt lat="46.49516" lon="6.07805">
        <ele>1085</ele>
        <time>2000-01-01T02:11:43.000Z</time>
      </trkpt>
      <trkpt lat="46.49525" lon="6.0784">
        <ele>1083</ele>
        <time>2000-01-01T02:11:33.000Z</time>
      </trkpt>
      <trkpt lat="46.49536" lon="6.07887">
        <ele>1077</ele>
        <time>2000-01-01T02:11:23.000Z</time>
      </trkpt>
      <trkpt lat="46.49584" lon="6.07866">
        <ele>1077</ele>
        <time>2000-01-01T02:11:13.000Z</time>
      </trkpt>
      <trkpt lat="46.49612" lon="6.07854">
        <ele>1073</ele>
        <time>2000-01-01T02:11:03.000Z</time>
      </trkpt>
      <trkpt lat="46.49631" lon="6.07906">
        <ele>1073</ele>
        <time>2000-01-01T02:10:53.000Z</time>
      </trkpt>
      <trkpt lat="46.49646" lon="6.07947">
        <ele>1072</ele>
        <time>2000-01-01T02:10:43.000Z</time>
      </trkpt>
      <trkpt lat="46.49661" lon="6.07988">
        <ele>1072</ele>
        <time>2000-01-01T02:10:33.000Z</time>
      </trkpt>
      <trkpt lat="46.49664" lon="6.08">
        <ele>1058.3</ele>
        <time>2000-01-01T02:10:23.000Z</time>
      </trkpt>
      <trkpt lat="46.49668" lon="6.0802">
        <ele>1072</ele>
        <time>2000-01-01T02:10:13.000Z</time>
      </trkpt>
      <trkpt lat="46.49685" lon="6.08064">
        <ele>1074</ele>
        <time>2000-01-01T02:10:03.000Z</time>
      </trkpt>
      <trkpt lat="46.49697" lon="6.08098">
        <ele>1076</ele>
        <time>2000-01-01T02:09:53.000Z</time>
      </trkpt>
      <trkpt lat="46.4972" lon="6.08159">
        <ele>1073</ele>
        <time>2000-01-01T02:09:43.000Z</time>
      </trkpt>
      <trkpt lat="46.49736" lon="6.08201">
        <ele>1071</ele>
        <time>2000-01-01T02:09:33.000Z</time>
      </trkpt>
      <trkpt lat="46.49751" lon="6.08243">
        <ele>1070</ele>
        <time>2000-01-01T02:09:23.000Z</time>
      </trkpt>
      <trkpt lat="46.49783" lon="6.08174">
        <ele>1067</ele>
        <time>2000-01-01T02:09:13.000Z</time>
      </trkpt>
      <trkpt lat="46.49799" lon="6.08137">
        <ele>1065</ele>
        <time>2000-01-01T02:09:03.000Z</time>
      </trkpt>
      <trkpt lat="46.49805" lon="6.0811">
        <ele>1066</ele>
        <time>2000-01-01T02:08:53.000Z</time>
      </trkpt>
      <trkpt lat="46.49804" lon="6.08079">
        <ele>1067</ele>
        <time>2000-01-01T02:08:43.000Z</time>
      </trkpt>
      <trkpt lat="46.49798" lon="6.08026">
        <ele>1066</ele>
        <time>2000-01-01T02:08:33.000Z</time>
      </trkpt>
      <trkpt lat="46.49806" lon="6.07983">
        <ele>1056.3</ele>
        <time>2000-01-01T02:08:23.000Z</time>
      </trkpt>
      <trkpt lat="46.49816" lon="6.07991">
        <ele>1066</ele>
        <time>2000-01-01T02:08:13.000Z</time>
      </trkpt>
      <trkpt lat="46.49834" lon="6.07965">
        <ele>1067</ele>
        <time>2000-01-01T02:08:03.000Z</time>
      </trkpt>
      <trkpt lat="46.49844" lon="6.07937">
        <ele>1065</ele>
        <time>2000-01-01T02:07:53.000Z</time>
      </trkpt>
      <trkpt lat="46.49856" lon="6.07901">
        <ele>1058</ele>
        <time>2000-01-01T02:07:43.000Z</time>
      </trkpt>
      <trkpt lat="46.49877" lon="6.07864">
        <ele>1056</ele>
        <time>2000-01-01T02:07:33.000Z</time>
      </trkpt>
      <trkpt lat="46.49906" lon="6.07836">
        <ele>1053</ele>
        <time>2000-01-01T02:07:23.000Z</time>
      </trkpt>
      <trkpt lat="46.49926" lon="6.07825">
        <ele>1053</ele>
        <time>2000-01-01T02:07:13.000Z</time>
      </trkpt>
      <trkpt lat="46.49944" lon="6.0783">
        <ele>1053</ele>
        <time>2000-01-01T02:07:03.000Z</time>
      </trkpt>
      <trkpt lat="46.49965" lon="6.07825">
        <ele>1064</ele>
        <time>2000-01-01T02:06:53.000Z</time>
      </trkpt>
      <trkpt lat="46.49995" lon="6.07825">
        <ele>1073</ele>
        <time>2000-01-01T02:06:43.000Z</time>
      </trkpt>
      <trkpt lat="46.5001" lon="6.07801">
        <ele>1081</ele>
        <time>2000-01-01T02:06:33.000Z</time>
      </trkpt>
      <trkpt lat="46.50029" lon="6.07783">
        <ele>1075.7</ele>
        <time>2000-01-01T02:06:23.000Z</time>
      </trkpt>
      <trkpt lat="46.50036" lon="6.07772">
        <ele>1090</ele>
        <time>2000-01-01T02:06:13.000Z</time>
      </trkpt>
      <trkpt lat="46.50069" lon="6.07826">
        <ele>1080.2</ele>
        <time>2000-01-01T02:06:03.000Z</time>
      </trkpt>
      <trkpt lat="46.50078" lon="6.07832">
        <ele>1104</ele>
        <time>2000-01-01T02:05:53.000Z</time>
      </trkpt>
      <trkpt lat="46.50098" lon="6.07856">
        <ele>1104</ele>
        <time>2000-01-01T02:05:43.000Z</time>
      </trkpt>
      <trkpt lat="46.50116" lon="6.07878">
        <ele>1104</ele>
        <time>2000-01-01T02:05:33.000Z</time>
      </trkpt>
      <trkpt lat="46.50138" lon="6.07902">
        <ele>1107</ele>
        <time>2000-01-01T02:05:23.000Z</time>
      </trkpt>
      <trkpt lat="46.50157" lon="6.07923">
        <ele>1107</ele>
        <time>2000-01-01T02:05:13.000Z</time>
      </trkpt>
      <trkpt lat="46.50184" lon="6.07952">
        <ele>1108</ele>
        <time>2000-01-01T02:05:03.000Z</time>
      </trkpt>
      <trkpt lat="46.50206" lon="6.07974">
        <ele>1117</ele>
        <time>2000-01-01T02:04:53.000Z</time>
      </trkpt>
      <trkpt lat="46.50225" lon="6.07995">
        <ele>1117</ele>
        <time>2000-01-01T02:04:43.000Z</time>
      </trkpt>
      <trkpt lat="46.50259" lon="6.08024">
        <ele>1121</ele>
        <time>2000-01-01T02:04:33.000Z</time>
      </trkpt>
      <trkpt lat="46.50287" lon="6.08046">
        <ele>1127</ele>
        <time>2000-01-01T02:04:23.000Z</time>
      </trkpt>
      <trkpt lat="46.50326" lon="6.08077">
        <ele>1145</ele>
        <time>2000-01-01T02:04:13.000Z</time>
      </trkpt>
      <trkpt lat="46.50354" lon="6.08123">
        <ele>1154</ele>
        <time>2000-01-01T02:04:03.000Z</time>
      </trkpt>
      <trkpt lat="46.50372" lon="6.08134">
        <ele>1163</ele>
        <time>2000-01-01T02:03:53.000Z</time>
      </trkpt>
      <trkpt lat="46.50401" lon="6.08158">
        <ele>1162</ele>
        <time>2000-01-01T02:03:43.000Z</time>
      </trkpt>
      <trkpt lat="46.50428" lon="6.08199">
        <ele>1173</ele>
        <time>2000-01-01T02:03:33.000Z</time>
      </trkpt>
      <trkpt lat="46.50455" lon="6.08233">
        <ele>1151</ele>
        <time>2000-01-01T02:03:23.000Z</time>
      </trkpt>
      <trkpt lat="46.50469" lon="6.08236">
        <ele>1173</ele>
        <time>2000-01-01T02:03:13.000Z</time>
      </trkpt>
      <trkpt lat="46.50501" lon="6.0823">
        <ele>1181</ele>
        <time>2000-01-01T02:03:03.000Z</time>
      </trkpt>
      <trkpt lat="46.50523" lon="6.08208">
        <ele>1175</ele>
        <time>2000-01-01T02:02:53.000Z</time>
      </trkpt>
      <trkpt lat="46.50539" lon="6.08207">
        <ele>1190</ele>
        <time>2000-01-01T02:02:43.000Z</time>
      </trkpt>
      <trkpt lat="46.50561" lon="6.08216">
        <ele>1180.9</ele>
        <time>2000-01-01T02:02:33.000Z</time>
      </trkpt>
      <trkpt lat="46.5057" lon="6.08193">
        <ele>1184.6</ele>
        <time>2000-01-01T02:02:23.000Z</time>
      </trkpt>
      <trkpt lat="46.5057" lon="6.08193">
        <ele>1199</ele>
        <time>2000-01-01T02:02:13.000Z</time>
      </trkpt>
      <trkpt lat="46.50572" lon="6.08157">
        <ele>1208</ele>
        <time>2000-01-01T02:02:03.000Z</time>
      </trkpt>
      <trkpt lat="46.5056" lon="6.08099">
        <ele>1205</ele>
        <time>2000-01-01T02:01:53.000Z</time>
      </trkpt>
      <trkpt lat="46.50559" lon="6.08043">
        <ele>1203</ele>
        <time>2000-01-01T02:01:43.000Z</time>
      </trkpt>
      <trkpt lat="46.5055" lon="6.0801">
        <ele>1206</ele>
        <time>2000-01-01T02:01:33.000Z</time>
      </trkpt>
      <trkpt lat="46.50529" lon="6.07963">
        <ele>1206</ele>
        <time>2000-01-01T02:01:23.000Z</time>
      </trkpt>
      <trkpt lat="46.50545" lon="6.07947">
        <ele>1206</ele>
        <time>2000-01-01T02:01:13.000Z</time>
      </trkpt>
      <trkpt lat="46.50555" lon="6.07924">
        <ele>1204.4</ele>
        <time>2000-01-01T02:01:03.000Z</time>
      </trkpt>
      <trkpt lat="46.50555" lon="6.07899">
        <ele>1216</ele>
        <time>2000-01-01T02:00:53.000Z</time>
      </trkpt>
      <trkpt lat="46.50544" lon="6.07862">
        <ele>1218</ele>
        <time>2000-01-01T02:00:43.000Z</time>
      </trkpt>
      <trkpt lat="46.50534" lon="6.0783">
        <ele>1220</ele>
        <time>2000-01-01T02:00:33.000Z</time>
      </trkpt>
      <trkpt lat="46.50526" lon="6.07807">
        <ele>1212</ele>
        <time>2000-01-01T02:00:23.000Z</time>
      </trkpt>
      <trkpt lat="46.50533" lon="6.07802">
        <ele>1226</ele>
        <time>2000-01-01T02:00:13.000Z</time>
      </trkpt>
      <trkpt lat="46.50557" lon="6.07818">
        <ele>1232</ele>
        <time>2000-01-01T02:00:03.000Z</time>
      </trkpt>
      <trkpt lat="46.50588" lon="6.07792">
        <ele>1239</ele>
        <time>2000-01-01T01:59:53.000Z</time>
      </trkpt>
      <trkpt lat="46.50621" lon="6.07761">
        <ele>1239</ele>
        <time>2000-01-01T01:59:43.000Z</time>
      </trkpt>
      <trkpt lat="46.50661" lon="6.07743">
        <ele>1246</ele>
        <time>2000-01-01T01:59:33.000Z</time>
      </trkpt>
      <trkpt lat="46.50656" lon="6.07706">
        <ele>1239.6</ele>
        <time>2000-01-01T01:59:23.000Z</time>
      </trkpt>
      <trkpt lat="46.50638" lon="6.07702">
        <ele>1247</ele>
        <time>2000-01-01T01:59:13.000Z</time>
      </trkpt>
      <trkpt lat="46.50629" lon="6.07677">
        <ele>1249</ele>
        <time>2000-01-01T01:59:03.000Z</time>
      </trkpt>
      <trkpt lat="46.50597" lon="6.07629">
        <ele>1246</ele>
        <time>2000-01-01T01:58:53.000Z</time>
      </trkpt>
      <trkpt lat="46.50639" lon="6.07622">
        <ele>1252</ele>
        <time>2000-01-01T01:58:43.000Z</time>
      </trkpt>
      <trkpt lat="46.50667" lon="6.07618">
        <ele>1255</ele>
        <time>2000-01-01T01:58:33.000Z</time>
      </trkpt>
      <trkpt lat="46.50706" lon="6.07615">
        <ele>1259</ele>
        <time>2000-01-01T01:58:23.000Z</time>
      </trkpt>
      <trkpt lat="46.50744" lon="6.07613">
        <ele>1274</ele>
        <time>2000-01-01T01:58:13.000Z</time>
      </trkpt>
      <trkpt lat="46.50781" lon="6.07611">
        <ele>1278</ele>
        <time>2000-01-01T01:58:03.000Z</time>
      </trkpt>
      <trkpt lat="46.50818" lon="6.07609">
        <ele>1283</ele>
        <time>2000-01-01T01:57:53.000Z</time>
      </trkpt>
      <trkpt lat="46.50855" lon="6.07607">
        <ele>1282</ele>
        <time>2000-01-01T01:57:43.000Z</time>
      </trkpt>
      <trkpt lat="46.50869" lon="6.07563">
        <ele>1282</ele>
        <time>2000-01-01T01:57:33.000Z</time>
      </trkpt>
      <trkpt lat="46.5088" lon="6.07528">
        <ele>1282</ele>
        <time>2000-01-01T01:57:23.000Z</time>
      </trkpt>
      <trkpt lat="46.50892" lon="6.07491">
        <ele>1282</ele>
        <time>2000-01-01T01:57:13.000Z</time>
      </trkpt>
      <trkpt lat="46.50874" lon="6.07461">
        <ele>1280</ele>
        <time>2000-01-01T01:57:03.000Z</time>
      </trkpt>
      <trkpt lat="46.50858" lon="6.07434">
        <ele>1278</ele>
        <time>2000-01-01T01:56:53.000Z</time>
      </trkpt>
      <trkpt lat="46.50917" lon="6.07466">
        <ele>1277.8</ele>
        <time>2000-01-01T01:56:43.000Z</time>
      </trkpt>
      <trkpt lat="46.50929" lon="6.07459">
        <ele>1277</ele>
        <time>2000-01-01T01:56:33.000Z</time>
      </trkpt>
      <trkpt lat="46.509" lon="6.07405">
        <ele>1277</ele>
        <time>2000-01-01T01:56:23.000Z</time>
      </trkpt>
      <trkpt lat="46.50882" lon="6.07372">
        <ele>1277</ele>
        <time>2000-01-01T01:56:13.000Z</time>
      </trkpt>
      <trkpt lat="46.50869" lon="6.07336">
        <ele>1278</ele>
        <time>2000-01-01T01:56:03.000Z</time>
      </trkpt>
      <trkpt lat="46.50857" lon="6.07304">
        <ele>1278</ele>
        <time>2000-01-01T01:55:53.000Z</time>
      </trkpt>
      <trkpt lat="46.5083" lon="6.07267">
        <ele>1278</ele>
        <time>2000-01-01T01:55:43.000Z</time>
      </trkpt>
      <trkpt lat="46.5081" lon="6.07241">
        <ele>1278</ele>
        <time>2000-01-01T01:55:33.000Z</time>
      </trkpt>
    </trkseg>
  </trk>
</gpx>